createdAt,value
2022-08-29T00:01:12.785Z,8.23
2022-08-29T00:03:40.964Z,9.70
2022-08-29T00:06:09.264Z,9.82
2022-08-29T00:08:36.302Z,10.75
2022-08-29T00:11:03.435Z,12.35
2022-08-29T00:13:30.399Z,12.25
2022-08-29T00:15:57.384Z,9.00
2022-08-29T00:18:24.483Z,8.75
2022-08-29T00:20:51.551Z,9.73
2022-08-29T00:23:19.014Z,9.88
2022-08-29T00:25:46.261Z,13.82
2022-08-29T00:28:13.738Z,7.70
2022-08-29T00:30:41.658Z,10.40
2022-08-29T00:33:09.475Z,9.43
2022-08-29T00:35:39.024Z,12.45
2022-08-29T00:38:09.858Z,11.75
2022-08-29T00:40:50.352Z,8.73
2022-08-29T00:43:21.620Z,12.90
2022-08-29T00:46:07.438Z,14.25
2022-08-29T00:48:36.390Z,11.38
2022-08-29T00:51:07.950Z,8.07
2022-08-29T00:53:39.738Z,10.88
2022-08-29T00:56:09.838Z,10.55
2022-08-29T00:58:42.610Z,9.77
2022-08-29T01:01:10.845Z,14.13
2022-08-29T01:03:42.704Z,9.95
2022-08-29T01:06:13.624Z,7.60
2022-08-29T01:08:41.161Z,8.15
2022-08-29T01:11:26.944Z,7.07
2022-08-29T01:13:55.006Z,6.95
2022-08-29T01:16:24.315Z,9.50
2022-08-29T01:18:56.585Z,14.20
2022-08-29T01:21:34.489Z,9.25
2022-08-29T01:24:10.420Z,8.77
2022-08-29T01:26:37.750Z,12.00
2022-08-29T01:29:04.971Z,11.07
2022-08-29T01:31:57.215Z,9.55
2022-08-29T01:34:27.727Z,11.63
2022-08-29T01:39:26.661Z,9.75
2022-08-29T01:41:54.833Z,14.75
2022-08-29T01:44:25.509Z,12.63
2022-08-29T01:46:59.100Z,10.10
2022-08-29T01:49:28.690Z,7.95
2022-08-29T01:51:55.630Z,9.30
2022-08-29T01:54:22.799Z,11.48
2022-08-29T01:56:52.183Z,8.95
2022-08-29T01:59:23.666Z,9.60
2022-08-29T02:02:01.128Z,7.90
2022-08-29T02:04:28.238Z,9.23
2022-08-29T02:06:56.264Z,10.70
2022-08-29T02:09:24.818Z,11.25
2022-08-29T02:11:52.629Z,13.13
2022-08-29T02:14:19.959Z,9.85
2022-08-29T02:16:48.304Z,7.22
2022-08-29T02:19:16.100Z,9.40
2022-08-29T02:21:44.488Z,7.50
2022-08-29T02:24:25.000Z,14.55
2022-08-29T02:26:54.116Z,9.80
2022-08-29T02:29:21.162Z,12.00
2022-08-29T02:31:48.497Z,10.98
2022-08-29T02:34:16.625Z,8.18
2022-08-29T02:36:44.085Z,8.77
2022-08-29T02:39:12.435Z,14.60
2022-08-29T02:41:39.538Z,7.18
2022-08-29T02:44:09.727Z,13.07
2022-08-29T02:46:37.314Z,8.73
2022-08-29T02:49:05.048Z,10.02
2022-08-29T02:51:33.263Z,10.98
2022-08-29T02:54:01.366Z,12.27
2022-08-29T02:56:28.748Z,13.02
2022-08-29T02:58:56.052Z,10.93
2022-08-29T03:01:24.247Z,10.02
2022-08-29T03:03:52.596Z,8.45
2022-08-29T03:06:20.786Z,8.55
2022-08-29T03:08:47.723Z,10.20
2022-08-29T03:11:16.059Z,14.80
2022-08-29T03:13:44.714Z,13.25
2022-08-29T03:16:11.955Z,12.13
2022-08-29T03:18:40.012Z,14.88
2022-08-29T03:21:15.680Z,17.02
2022-08-29T03:23:42.776Z,16.90
2022-08-29T03:26:09.799Z,21.38
2022-08-29T03:28:36.841Z,14.05
2022-08-29T03:31:03.980Z,11.95
2022-08-29T03:33:31.018Z,18.65
2022-08-29T03:35:58.282Z,16.02
2022-08-29T03:38:25.520Z,13.85
2022-08-29T03:40:53.441Z,12.02
2022-08-29T03:43:25.119Z,18.95
2022-08-29T03:45:52.716Z,11.95
2022-08-29T03:48:19.629Z,13.52
2022-08-29T03:50:46.619Z,12.75
2022-08-29T03:53:13.830Z,14.32
2022-08-29T03:55:40.970Z,13.23
2022-08-29T03:58:08.230Z,14.30
2022-08-29T04:00:35.493Z,15.15
2022-08-29T04:03:02.594Z,12.18
2022-08-29T04:05:30.112Z,14.48
2022-08-29T04:07:59.210Z,16.33
2022-08-29T04:10:31.774Z,16.75
2022-08-29T04:12:59.556Z,11.20
2022-08-29T04:15:28.125Z,18.65
2022-08-29T04:17:58.460Z,16.25
2022-08-29T04:20:28.883Z,12.88
2022-08-29T04:22:57.438Z,14.32
2022-08-29T04:25:27.191Z,12.77
2022-08-29T04:27:55.304Z,15.68
2022-08-29T04:30:25.183Z,15.70
2022-08-29T04:35:19.746Z,10.98
2022-08-29T04:37:47.127Z,12.43
2022-08-29T04:40:16.760Z,13.75
2022-08-29T04:42:44.474Z,13.45
2022-08-29T04:45:13.605Z,11.25
2022-08-29T04:47:42.544Z,10.85
2022-08-29T04:50:12.912Z,12.50
2022-08-29T04:52:40.825Z,11.65
2022-08-29T04:55:08.551Z,15.43
2022-08-29T04:57:36.593Z,19.23
2022-08-29T05:00:06.397Z,16.67
2022-08-29T05:05:00.358Z,12.40
2022-08-29T05:07:27.449Z,15.82
2022-08-29T05:10:01.064Z,18.50
2022-08-29T05:12:30.060Z,12.93
2022-08-29T05:14:57.937Z,11.40
2022-08-29T05:17:26.169Z,18.77
2022-08-29T05:19:53.458Z,14.13
2022-08-29T05:22:21.378Z,14.68
2022-08-29T05:24:49.733Z,12.80
2022-08-29T05:27:20.032Z,13.80
2022-08-29T05:29:49.108Z,18.27
2022-08-29T05:32:17.586Z,16.73
2022-08-29T05:34:45.964Z,18.23
2022-08-29T05:37:15.985Z,16.02
2022-08-29T05:39:43.239Z,15.65
2022-08-29T05:42:11.906Z,15.45
2022-08-29T05:44:39.539Z,13.95
2022-08-29T05:47:10.192Z,15.45
2022-08-29T05:49:39.156Z,16.13
2022-08-29T05:52:07.257Z,14.73
2022-08-29T05:54:37.032Z,15.60
2022-08-29T05:57:05.031Z,15.18
2022-08-29T05:59:32.065Z,15.07
2022-08-29T06:01:59.133Z,16.65
2022-08-29T06:04:26.192Z,16.23
2022-08-29T06:06:53.212Z,19.77
2022-08-29T06:09:20.218Z,14.32
2022-08-29T06:11:50.213Z,17.95
2022-08-29T06:14:17.745Z,17.05
2022-08-29T06:16:45.107Z,15.07
2022-08-29T06:19:12.922Z,18.70
2022-08-29T06:21:39.985Z,17.27
2022-08-29T06:24:07.479Z,15.85
2022-08-29T06:26:34.823Z,19.25
2022-08-29T06:29:05.530Z,19.40
2022-08-29T06:31:32.677Z,15.43
2022-08-29T06:34:01.691Z,19.42
2022-08-29T06:36:29.856Z,16.23
2022-08-29T06:38:58.325Z,15.77
2022-08-29T06:41:25.587Z,16.42
2022-08-29T06:43:54.651Z,18.67
2022-08-29T06:46:28.764Z,17.37
2022-08-29T06:48:57.587Z,16.98
2022-08-29T06:51:25.071Z,19.05
2022-08-29T06:53:52.338Z,15.95
2022-08-29T06:56:20.491Z,19.38
2022-08-29T06:58:47.493Z,18.58
2022-08-29T07:01:17.003Z,16.30
2022-08-29T07:03:44.408Z,22.55
2022-08-29T07:06:11.663Z,18.77
2022-08-29T07:08:46.649Z,18.25
2022-08-29T07:11:22.680Z,18.60
2022-08-29T07:13:49.654Z,15.45
2022-08-29T07:16:18.835Z,17.33
2022-08-29T07:18:47.306Z,20.00
2022-08-29T07:21:20.645Z,19.20
2022-08-29T07:23:49.349Z,19.40
2022-08-29T07:26:21.504Z,20.05
2022-08-29T07:28:50.478Z,19.60
2022-08-29T07:31:18.697Z,17.65
2022-08-29T07:33:46.107Z,19.45
2022-08-29T07:36:13.209Z,18.35
2022-08-29T07:38:40.327Z,16.40
2022-08-29T07:41:10.779Z,17.95
2022-08-29T07:43:37.834Z,18.33
2022-08-29T07:46:09.347Z,16.55
2022-08-29T07:48:37.010Z,17.00
2022-08-29T07:51:10.959Z,17.42
2022-08-29T07:53:38.967Z,18.88
2022-08-29T07:56:08.375Z,19.15
2022-08-29T07:58:36.337Z,22.70
2022-08-29T08:01:04.230Z,20.65
2022-08-29T08:03:32.694Z,16.17
2022-08-29T08:05:59.842Z,18.10
2022-08-29T08:08:31.497Z,16.80
2022-08-29T08:10:58.511Z,17.70
2022-08-29T08:13:25.482Z,19.58
2022-08-29T08:15:52.446Z,15.40
2022-08-29T08:18:19.420Z,18.30
2022-08-29T08:20:48.504Z,19.73
2022-08-29T08:23:17.074Z,16.45
2022-08-29T08:25:44.631Z,17.65
2022-08-29T08:28:15.191Z,15.27
2022-08-29T08:30:42.428Z,14.48
2022-08-29T08:33:10.005Z,15.02
2022-08-29T08:35:41.878Z,12.90
2022-08-29T08:38:09.466Z,17.35
2022-08-29T08:40:43.805Z,15.75
2022-08-29T08:43:20.652Z,14.88
2022-08-29T08:45:55.498Z,16.52
2022-08-29T08:48:26.132Z,13.30
2022-08-29T08:51:25.431Z,13.20
2022-08-29T08:53:56.556Z,11.32
2022-08-29T08:56:35.726Z,12.13
2022-08-29T08:59:05.472Z,16.05
2022-08-29T09:04:30.805Z,12.15
2022-08-29T09:07:31.559Z,13.25
2022-08-29T09:10:34.089Z,11.65
2022-08-29T09:13:21.774Z,13.13
2022-08-29T09:15:53.609Z,13.05
2022-08-29T09:18:40.467Z,13.98
2022-08-29T09:21:37.112Z,11.93
2022-08-29T09:24:00.894Z,10.85
2022-08-29T09:26:27.846Z,11.63
2022-08-29T09:28:55.631Z,14.57
2022-08-29T09:31:34.405Z,11.07
2022-08-29T09:34:05.165Z,10.57
2022-08-29T09:36:50.785Z,10.68
2022-08-29T09:39:33.368Z,10.05
2022-08-29T09:42:19.525Z,9.10
2022-08-29T09:44:59.063Z,11.50
2022-08-29T09:47:29.357Z,9.00
2022-08-29T09:50:10.985Z,7.45
2022-08-29T09:52:50.121Z,10.45
2022-08-29T09:55:20.615Z,10.85
2022-08-29T09:58:16.857Z,7.43
2022-08-29T10:01:07.434Z,7.00
2022-08-29T10:03:39.684Z,7.65
2022-08-29T10:06:24.008Z,7.60
2022-08-29T10:09:06.006Z,8.45
2022-08-29T10:12:03.715Z,8.13
2022-08-29T10:14:51.603Z,8.48
2022-08-29T10:17:47.423Z,7.05
2022-08-29T10:20:14.788Z,8.65
2022-08-29T10:22:46.932Z,8.15
2022-08-29T10:25:34.782Z,10.00
2022-08-29T10:28:07.020Z,9.93
2022-08-29T10:30:43.951Z,7.55
2022-08-29T10:33:23.051Z,9.30
2022-08-29T10:36:08.100Z,13.60
2022-08-29T10:38:54.349Z,7.57
2022-08-29T10:41:50.523Z,8.60
2022-08-29T10:45:01.952Z,6.57
2022-08-29T10:47:52.303Z,11.43
2022-08-29T10:50:45.725Z,7.50
2022-08-29T10:53:20.334Z,9.27
2022-08-29T10:56:04.406Z,8.82
2022-08-29T10:59:01.461Z,9.57
2022-08-29T11:01:49.695Z,8.30
2022-08-29T11:04:45.501Z,7.88
2022-08-29T11:07:21.710Z,8.98
2022-08-29T11:09:49.366Z,7.72
2022-08-29T11:12:45.610Z,6.55
2022-08-29T11:15:26.998Z,6.78
2022-08-29T11:18:22.443Z,9.13
2022-08-29T11:20:56.621Z,6.95
2022-08-29T11:23:32.465Z,8.77
2022-08-29T11:26:07.607Z,8.00
2022-08-29T11:28:53.238Z,8.63
2022-08-29T11:31:35.488Z,7.32
2022-08-29T11:34:27.699Z,5.90
2022-08-29T11:37:27.762Z,11.70
2022-08-29T11:40:09.083Z,9.10
2022-08-29T11:42:56.235Z,8.60
2022-08-29T11:45:35.592Z,6.88
2022-08-29T11:48:10.487Z,6.63
2022-08-29T11:50:39.241Z,8.02
2022-08-29T11:53:22.621Z,8.23
2022-08-29T11:56:28.763Z,6.22
2022-08-29T11:58:58.039Z,8.85
2022-08-29T12:01:24.880Z,5.30
2022-08-29T12:04:02.319Z,7.75
2022-08-29T12:06:29.159Z,8.02
2022-08-29T12:09:04.914Z,6.47
2022-08-29T12:12:04.572Z,11.52
2022-08-29T12:14:38.021Z,6.75
2022-08-29T12:17:16.341Z,4.88
2022-08-29T12:19:54.346Z,6.32
2022-08-29T12:22:52.691Z,9.15
2022-08-29T12:25:28.650Z,8.02
2022-08-29T12:28:05.892Z,7.95
2022-08-29T12:30:40.177Z,7.47
2022-08-29T12:33:11.859Z,6.97
2022-08-29T12:35:44.963Z,9.05
2022-08-29T12:38:31.280Z,9.18
2022-08-29T12:41:32.924Z,5.97
2022-08-29T12:44:04.236Z,6.50
2022-08-29T12:46:36.211Z,9.82
2022-08-29T12:49:37.783Z,6.55
2022-08-29T12:52:08.121Z,6.28
2022-08-29T12:54:45.949Z,5.40
2022-08-29T12:57:23.716Z,8.65
2022-08-29T12:59:53.167Z,8.60
2022-08-29T13:02:32.721Z,8.20
2022-08-29T13:07:28.308Z,5.47
2022-08-29T13:10:01.150Z,5.75
2022-08-29T13:12:29.418Z,7.43
2022-08-29T13:15:03.380Z,7.13
2022-08-29T13:17:40.267Z,4.65
2022-08-29T13:20:38.257Z,7.60
2022-08-29T13:23:19.629Z,7.78
2022-08-29T13:26:03.178Z,6.25
2022-08-29T13:28:43.886Z,7.15
2022-08-29T13:31:17.118Z,7.10
2022-08-29T13:33:50.202Z,5.32
2022-08-29T13:36:32.370Z,5.47
2022-08-29T13:39:17.434Z,5.78
2022-08-29T13:41:44.297Z,6.40
2022-08-29T13:44:19.829Z,5.97
2022-08-29T13:46:48.400Z,5.32
2022-08-29T13:49:27.576Z,6.10
2022-08-29T13:51:54.811Z,7.68
2022-08-29T13:54:22.061Z,5.88
2022-08-29T13:56:56.195Z,7.88
2022-08-29T13:59:26.351Z,4.78
2022-08-29T14:02:12.941Z,4.53
2022-08-29T14:04:41.682Z,7.10
2022-08-29T14:07:11.321Z,9.85
2022-08-29T14:09:41.923Z,7.20
2022-08-29T14:12:09.860Z,5.28
2022-08-29T14:14:36.959Z,6.68
2022-08-29T14:17:04.623Z,9.50
2022-08-29T14:19:31.765Z,5.50
2022-08-29T14:22:02.182Z,6.93
2022-08-29T14:24:31.296Z,9.45
2022-08-29T14:27:02.036Z,8.13
2022-08-29T14:29:31.230Z,5.30
2022-08-29T14:31:58.913Z,6.67
2022-08-29T14:34:32.140Z,9.00
2022-08-29T14:36:59.363Z,6.72
2022-08-29T14:39:26.600Z,6.50
2022-08-29T14:41:54.512Z,6.43
2022-08-29T14:44:22.278Z,7.25
2022-08-29T14:46:49.766Z,7.47
2022-08-29T14:49:16.964Z,8.32
2022-08-29T14:51:44.560Z,5.55
2022-08-29T14:54:12.654Z,5.55
2022-08-29T14:56:48.802Z,4.38
2022-08-29T14:59:17.465Z,6.70
2022-08-29T15:01:44.938Z,7.47
2022-08-29T15:04:13.010Z,7.18
2022-08-29T15:06:41.124Z,7.32
2022-08-29T15:09:08.218Z,6.68
2022-08-29T15:11:35.347Z,6.53
2022-08-29T15:14:04.643Z,4.50
2022-08-29T15:16:32.650Z,7.85
2022-08-29T15:19:45.134Z,5.28
2022-08-29T15:21:46.705Z,7.20
2022-08-29T15:24:13.758Z,7.38
2022-08-29T15:26:41.016Z,7.72
2022-08-29T15:29:09.081Z,7.93
2022-08-29T15:31:36.088Z,7.25
2022-08-29T15:34:03.100Z,7.85
2022-08-29T15:36:30.526Z,5.40
2022-08-29T15:38:58.482Z,5.78
2022-08-29T15:41:25.481Z,4.90
2022-08-29T15:43:52.439Z,7.28
2022-08-29T15:46:19.565Z,4.43
2022-08-29T15:48:48.587Z,8.75
2022-08-29T15:51:15.537Z,5.25
2022-08-29T15:53:42.529Z,5.80
2022-08-29T15:56:09.862Z,10.82
2022-08-29T15:58:37.021Z,4.70
2022-08-29T16:01:05.579Z,8.35
2022-08-29T16:03:32.843Z,5.88
2022-08-29T16:06:00.189Z,6.53
2022-08-29T16:08:29.670Z,5.35
2022-08-29T16:10:57.104Z,7.35
2022-08-29T16:13:24.149Z,6.13
2022-08-29T16:15:51.160Z,7.93
2022-08-29T16:18:18.149Z,6.68
2022-08-29T16:20:45.172Z,8.48
2022-08-29T16:23:12.201Z,5.05
2022-08-29T16:25:39.721Z,7.93
2022-08-29T16:28:08.994Z,5.22
2022-08-29T16:30:36.223Z,9.55
2022-08-29T16:33:11.635Z,7.53
2022-08-29T16:35:38.617Z,7.15
2022-08-29T16:38:05.659Z,5.45
2022-08-29T16:40:32.809Z,4.72
2022-08-29T16:43:01.724Z,4.85
2022-08-29T16:45:29.205Z,5.43
2022-08-29T16:47:57.712Z,6.50
2022-08-29T16:50:26.531Z,14.98
2022-08-29T16:52:54.098Z,8.13
2022-08-29T16:55:21.607Z,8.90
2022-08-29T16:58:07.121Z,4.93
2022-08-29T17:00:35.285Z,8.75
2022-08-29T17:03:02.341Z,8.73
2022-08-29T17:05:29.451Z,5.32
2022-08-29T17:07:56.330Z,6.18
2022-08-29T17:10:23.289Z,4.65
2022-08-29T17:12:50.243Z,6.45
2022-08-29T17:15:17.198Z,8.30
2022-08-29T17:17:44.238Z,10.88
2022-08-29T17:20:11.948Z,7.75
2022-08-29T17:22:39.461Z,6.80
2022-08-29T17:25:07.083Z,6.68
2022-08-29T17:27:34.106Z,8.73
2022-08-29T17:30:01.122Z,8.05
2022-08-29T17:32:28.482Z,8.63
2022-08-29T17:34:55.454Z,7.43
2022-08-29T17:37:22.433Z,7.18
2022-08-29T17:39:49.452Z,4.35
2022-08-29T17:42:16.698Z,5.97
2022-08-29T17:44:45.833Z,9.82
2022-08-29T17:47:13.049Z,5.70
2022-08-29T17:49:40.011Z,6.78
2022-08-29T17:52:06.993Z,6.60
2022-08-29T17:54:34.191Z,6.20
2022-08-29T17:57:02.161Z,6.93
2022-08-29T17:59:34.522Z,6.25
2022-08-29T18:02:01.758Z,6.15
2022-08-29T18:04:29.245Z,5.60
2022-08-29T18:06:56.758Z,6.68
2022-08-29T18:09:24.921Z,4.88
2022-08-29T18:11:53.921Z,5.43
2022-08-29T18:14:23.795Z,4.85
2022-08-29T18:16:52.572Z,5.20
2022-08-29T18:19:22.122Z,5.70
2022-08-29T18:21:50.442Z,6.13
2022-08-29T18:24:17.763Z,7.32
2022-08-29T18:26:46.323Z,10.38
2022-08-29T18:29:14.151Z,6.57
2022-08-29T18:31:41.917Z,8.18
2022-08-29T18:34:11.160Z,6.60
2022-08-29T18:36:42.333Z,6.45
2022-08-29T18:39:10.820Z,7.88
2022-08-29T18:41:37.877Z,7.43
2022-08-29T18:44:05.101Z,6.10
2022-08-29T18:46:33.394Z,6.35
2022-08-29T18:49:00.783Z,5.32
2022-08-29T18:51:28.311Z,5.70
2022-08-29T18:53:55.695Z,7.43
2022-08-29T18:56:22.691Z,6.57
2022-08-29T18:58:54.619Z,6.10
2022-08-29T19:01:28.578Z,4.10
2022-08-29T19:03:57.811Z,9.45
2022-08-29T19:06:27.458Z,6.90
2022-08-29T19:08:56.505Z,8.95
2022-08-29T19:11:24.105Z,5.68
2022-08-29T19:13:52.517Z,6.47
2022-08-29T19:16:21.434Z,7.55
2022-08-29T19:18:49.082Z,8.00
2022-08-29T19:21:16.132Z,9.45
2022-08-29T19:23:47.231Z,7.20
2022-08-29T19:26:23.413Z,9.52
2022-08-29T19:28:53.037Z,7.30
2022-08-29T19:31:24.120Z,6.28
2022-08-29T19:33:51.240Z,6.05
2022-08-29T19:36:18.263Z,5.55
2022-08-29T19:38:45.385Z,6.95
2022-08-29T19:41:12.801Z,5.60
2022-08-29T19:43:41.060Z,7.40
2022-08-29T19:46:14.532Z,6.53
2022-08-29T19:48:43.840Z,6.45
2022-08-29T19:51:14.114Z,5.80
2022-08-29T19:53:41.861Z,7.35
2022-08-29T19:56:10.172Z,9.52
2022-08-29T19:58:38.224Z,13.80
2022-08-29T20:01:07.657Z,7.03
2022-08-29T20:03:38.047Z,7.45
2022-08-29T20:06:06.963Z,11.30
2022-08-29T20:08:41.838Z,7.93
2022-08-29T20:11:14.067Z,5.63
2022-08-29T20:13:47.550Z,8.98
2022-08-29T20:16:20.238Z,13.05
2022-08-29T20:18:50.136Z,11.13
2022-08-29T20:21:19.247Z,10.43
2022-08-29T20:23:49.476Z,7.75
2022-08-29T20:26:19.600Z,7.95
2022-08-29T20:28:47.475Z,8.65
2022-08-29T20:31:14.498Z,11.25
2022-08-29T20:33:44.893Z,9.23
2022-08-29T20:36:30.844Z,13.15
2022-08-29T20:38:58.042Z,13.20
2022-08-29T20:41:25.048Z,16.10
2022-08-29T20:43:52.051Z,13.73
2022-08-29T20:46:19.076Z,15.15
2022-08-29T20:48:46.319Z,17.05
2022-08-29T20:51:13.590Z,15.13
2022-08-29T20:53:40.796Z,15.93
2022-08-29T20:56:08.674Z,10.00
2022-08-29T20:58:36.164Z,9.95
2022-08-29T21:01:03.821Z,6.63
2022-08-29T21:03:49.709Z,7.50
2022-08-29T21:06:20.454Z,6.65
2022-08-29T21:08:47.819Z,7.93
2022-08-29T21:11:16.326Z,6.07
2022-08-29T21:13:43.702Z,6.50
2022-08-29T21:16:11.919Z,8.32
2022-08-29T21:18:39.541Z,8.23
2022-08-29T21:21:06.695Z,7.85
2022-08-29T21:23:34.415Z,8.45
2022-08-29T21:26:02.321Z,8.10
2022-08-29T21:28:32.312Z,7.80
2022-08-29T21:31:10.902Z,9.82
2022-08-29T21:33:40.550Z,6.70
2022-08-29T21:36:12.966Z,6.00
2022-08-29T21:38:40.538Z,9.25
2022-08-29T21:41:12.344Z,6.75
2022-08-29T21:43:40.275Z,8.82
2022-08-29T21:46:17.753Z,9.48
2022-08-29T21:48:46.182Z,9.00
2022-08-29T21:51:14.206Z,7.32
2022-08-29T21:53:41.684Z,7.47
2022-08-29T21:56:08.927Z,7.93
2022-08-29T21:58:35.921Z,7.72
2022-08-29T22:01:03.353Z,11.27
2022-08-29T22:03:30.697Z,9.43
2022-08-29T22:05:57.738Z,4.95
2022-08-29T22:08:25.320Z,7.10
2022-08-29T22:10:52.370Z,7.03
2022-08-29T22:13:19.339Z,5.18
2022-08-29T22:16:05.000Z,5.47
2022-08-29T22:18:32.125Z,8.60
2022-08-29T22:21:00.603Z,9.57
2022-08-29T22:23:28.744Z,7.38
2022-08-29T22:25:56.578Z,6.40
2022-08-29T22:28:23.731Z,6.28
2022-08-29T22:30:50.799Z,7.60
2022-08-29T22:33:18.045Z,7.57
2022-08-29T22:35:45.126Z,7.53
2022-08-29T22:38:12.091Z,7.30
2022-08-29T22:40:40.474Z,10.07
2022-08-29T22:43:07.514Z,10.85
2022-08-29T22:45:34.594Z,9.95
2022-08-29T22:48:01.647Z,5.80
2022-08-29T22:50:28.771Z,6.80
2022-08-29T22:52:58.087Z,9.30
2022-08-29T22:57:52.173Z,12.95
2022-08-29T23:00:22.811Z,5.07
2022-08-29T23:02:50.817Z,8.32
2022-08-29T23:05:19.969Z,8.60
2022-08-29T23:07:47.095Z,8.45
2022-08-29T23:10:14.898Z,7.88
2022-08-29T23:12:42.246Z,8.23
2022-08-29T23:15:13.252Z,9.63
2022-08-29T23:17:40.863Z,6.28
2022-08-29T23:20:11.586Z,13.98
2022-08-29T23:22:39.469Z,7.72
2022-08-29T23:25:11.963Z,7.50
2022-08-29T23:27:39.143Z,7.20
2022-08-29T23:30:09.625Z,6.57
2022-08-29T23:32:36.883Z,5.78
2022-08-29T23:35:05.193Z,6.78
2022-08-29T23:37:32.163Z,7.82
2022-08-29T23:40:00.066Z,6.07
2022-08-29T23:42:27.559Z,12.43
2022-08-29T23:44:54.606Z,27.55
2022-08-29T23:47:21.589Z,39.33
2022-08-29T23:49:48.631Z,24.92
2022-08-29T23:52:15.614Z,19.85
2022-08-29T23:54:42.982Z,12.30
2022-08-29T23:57:10.018Z,8.50
2022-08-29T23:59:55.379Z,8.23
